Time;durP1;ratioP1;P1;durP2;ratioP2;P2;SDS_P1;SDS_P2;PMS_P1;PMS_P2;Temp;Humidity;BMP_temperature;BMP_pressure;BME280_temperature;BME280_humidity;BME280_pressure;Samples;Min_cycle;Max_cycle;Signal;HPM_P1;HPM_P2
2020/12/21 00:00:09;;;;;;;;;;;;;;;21.11;40.38;101249.97;3122539;27;114022;-59
2020/12/21 00:01:46;;;;;;;;;;;;;;;21.10;40.39;101249.13;3122260;27;115522;-61
2020/12/21 00:03:17;;;;;;;;;;;;;;;21.10;40.66;101245.47;3121959;27;114092;-60
2020/12/21 00:04:53;;;;;;;;;;;;;;;21.09;41.02;101249.41;3122545;27;113885;-60
2020/12/21 00:06:24;;;;;;;;;;;;;;;21.09;41.17;101247.44;3126586;27;114407;-63
2020/12/21 00:07:55;;;;;;;;;;;;;;;21.11;40.85;101242.38;3122379;27;116027;-62
2020/12/21 00:09:28;;;;;;;;;;;;;;;21.11;40.87;101248.00;3119003;27;114142;-61
2020/12/21 00:10:59;;;;;;;;;;;;;;;21.10;41.28;101242.66;3121426;27;114470;-61
2020/12/21 00:12:32;;;;;;;;;;;;;;;21.08;41.29;101242.13;3123054;27;114137;-61
2020/12/21 00:14:06;;;;;;;;;;;;;;;21.08;41.35;101242.13;3118372;27;114387;-62
2020/12/21 00:15:37;;;;;;;;;;;;;;;21.05;41.09;101239.94;3122534;27;114614;-61
2020/12/21 00:17:09;;;;;;;;;;;;;;;21.05;41.09;101232.34;3134093;27;114616;-62
2020/12/21 00:18:52;;;;;;;;;;;;;;;21.04;41.08;101243.88;3134489;27;114254;-61
2020/12/21 00:20:33;;;;;;;;;;;;;;;21.03;41.36;101243.03;3134441;27;114758;-61
2020/12/21 00:22:05;;;;;;;;;;;;;;;21.01;41.71;101247.31;3135592;27;115106;-62
2020/12/21 00:23:39;;;;;;;;;;;;;;;20.99;41.43;101239.16;3134791;27;114112;-62
2020/12/21 00:25:11;;;;;;;;;;;;;;;20.98;41.45;101243.13;3135575;27;117336;-62
2020/12/21 00:26:46;;;;;;;;;;;;;;;20.97;41.68;101244.28;3133514;27;113886;-62
2020/12/21 00:28:17;;;;;;;;;;;;;;;20.98;41.43;101237.53;3138654;27;115157;-61
2020/12/21 00:29:48;;;;;;;;;;;;;;;20.96;41.69;101238.94;3134966;27;116052;-60
2020/12/21 00:31:26;;;;;;;;;;;;;;;20.95;41.98;101232.50;3122604;27;115720;-63
2020/12/21 00:32:58;;;;;;;;;;;;;;;20.94;41.98;101236.44;3128893;27;114771;-61
2020/12/21 00:34:29;;;;;;;;;;;;;;;20.93;42.10;101234.78;3134357;27;115967;-62
2020/12/21 00:36:00;;;;;;;;;;;;;;;20.92;42.20;101230.31;3135696;27;117987;-65
2020/12/21 00:37:31;;;;;;;;;;;;;;;20.91;42.12;101227.78;3135142;27;116735;-62
2020/12/21 00:39:03;;;;;;;;;;;;;;;20.90;42.25;101231.72;3133172;27;115932;-62
2020/12/21 00:40:34;;;;;;;;;;;;;;;20.88;42.36;101223.63;3133373;27;116017;-62
2020/12/21 00:42:06;;;;;;;;;;;;;;;20.88;42.40;101228.41;3134763;27;115647;-62
2020/12/21 00:43:37;;;;;;;;;;;;;;;20.86;42.15;101220.28;3120539;27;115227;-63
2020/12/21 00:45:08;;;;;;;;;;;;;;;20.85;42.22;101227.84;3121372;27;114864;-62
2020/12/21 00:46:39;;;;;;;;;;;;;;;20.86;42.57;101231.50;3129730;27;114732;-62
2020/12/21 00:48:10;;;;;;;;;;;;;;;20.84;42.82;101228.19;3133961;27;114530;-61
2020/12/21 00:49:42;;;;;;;;;;;;;;;20.81;42.73;101225.97;3137817;27;115785;-61
2020/12/21 00:51:14;;;;;;;;;;;;;;;20.80;42.62;101224.31;3132695;27;113831;-61
2020/12/21 00:52:45;;;;;;;;;;;;;;;20.79;42.88;101223.47;3120916;27;114565;-64
2020/12/21 00:54:17;;;;;;;;;;;;;;;20.78;42.97;101226.59;3119979;27;114241;-61
2020/12/21 00:55:48;;;;;;;;;;;;;;;20.79;42.99;101225.44;3127755;27;114035;-61
2020/12/21 00:57:19;;;;;;;;;;;;;;;20.77;42.80;101220.13;3134552;27;115167;-61
2020/12/21 00:58:54;;;;;;;;;;;;;;;20.76;42.78;101223.22;3116533;27;114683;-63
2020/12/21 01:00:25;;;;;;;;;;;;;;;20.75;42.80;101222.41;3130453;27;114279;-60
2020/12/21 01:01:57;;;;;;;;;;;;;;;20.73;43.16;101224.69;3133964;27;114407;-61
2020/12/21 01:03:28;;;;;;;;;;;;;;;20.74;42.96;101222.72;3133934;27;114619;-60
2020/12/21 01:05:01;;;;;;;;;;;;;;;20.73;43.08;101215.41;3134348;27;114392;-59
2020/12/21 01:06:34;;;;;;;;;;;;;;;20.72;42.86;101213.75;3118017;27;113960;-60
2020/12/21 01:08:08;;;;;;;;;;;;;;;20.71;43.24;101214.91;3129574;27;113865;-60
2020/12/21 01:09:39;;;;;;;;;;;;;;;20.70;43.00;101216.88;3134461;27;114521;-60
2020/12/21 01:11:10;;;;;;;;;;;;;;;20.71;43.05;101212.94;3136082;27;114303;-60
2020/12/21 01:12:42;;;;;;;;;;;;;;;20.69;43.15;101211.56;3135522;27;114209;-61
2020/12/21 01:14:13;;;;;;;;;;;;;;;20.68;43.46;101209.88;3134561;27;115340;-61
2020/12/21 01:15:45;;;;;;;;;;;;;;;20.69;43.45;101209.59;3134492;27;115149;-61
2020/12/21 01:17:16;;;;;;;;;;;;;;;20.67;43.21;101209.03;3134448;27;115185;-61
2020/12/21 01:18:48;;;;;;;;;;;;;;;20.67;43.28;101216.66;3133625;27;115314;-61
2020/12/21 01:20:19;;;;;;;;;;;;;;;20.66;43.28;101212.16;3134917;27;114129;-61
2020/12/21 01:21:51;;;;;;;;;;;;;;;20.65;43.60;101216.94;3134313;27;114585;-62
2020/12/21 01:23:22;;;;;;;;;;;;;;;20.63;43.59;101216.41;3134233;27;115275;-62
2020/12/21 01:24:53;;;;;;;;;;;;;;;20.64;43.52;101222.84;3120829;27;115466;-62
2020/12/21 01:26:25;;;;;;;;;;;;;;;20.61;43.72;101210.28;3130452;27;114301;-62
2020/12/21 01:27:56;;;;;;;;;;;;;;;20.60;43.51;101216.19;3135205;27;115572;-62
2020/12/21 01:29:28;;;;;;;;;;;;;;;20.59;43.85;101214.50;3134356;27;115543;-61
2020/12/21 01:30:59;;;;;;;;;;;;;;;20.57;43.43;101206.41;3121461;27;115516;-61
2020/12/21 01:32:30;;;;;;;;;;;;;;;20.56;43.40;101207.53;3133425;27;115449;-61
2020/12/21 01:34:14;;;;;;;;;;;;;;;20.55;43.80;101208.66;3133300;27;114608;-60
2020/12/21 01:36:08;;;;;;;;;;;;;;;20.53;43.76;101201.69;3120795;27;114800;-61
2020/12/21 01:38:01;;;;;;;;;;;;;;;20.52;43.63;101192.44;3129585;27;115127;-61
2020/12/21 01:39:47;;;;;;;;;;;;;;;20.52;43.89;101184.00;3135045;27;115795;-61
2020/12/21 01:41:33;;;;;;;;;;;;;;;20.50;43.79;101177.84;3130122;27;114928;-62
2020/12/21 01:43:17;;;;;;;;;;;;;;;20.50;44.20;101182.63;3133515;27;119247;-63
2020/12/21 01:44:48;;;;;;;;;;;;;;;20.47;44.05;101178.47;3118601;27;115061;-63
2020/12/21 01:46:20;;;;;;;;;;;;;;;20.47;44.09;101186.88;3131438;27;114423;-64
2020/12/21 01:47:51;;;;;;;;;;;;;;;20.44;44.23;101179.09;3108751;28;114265;-59
2020/12/21 01:49:23;;;;;;;;;;;;;;;20.45;44.50;101180.72;3127212;27;115286;-58
2020/12/21 01:51:05;;;;;;;;;;;;;;;20.44;44.38;101183.84;3135182;27;115768;-59
2020/12/21 01:52:36;;;;;;;;;;;;;;;20.41;44.33;101176.84;3134873;27;114984;-58
2020/12/21 01:54:08;;;;;;;;;;;;;;;20.40;44.36;101175.19;3118051;27;116901;-58
2020/12/21 01:55:40;;;;;;;;;;;;;;;20.41;44.28;101174.06;3124030;27;116299;-58
2020/12/21 01:57:11;;;;;;;;;;;;;;;20.38;44.44;101169.88;3116700;27;115826;-58
2020/12/21 01:58:42;;;;;;;;;;;;;;;20.38;44.42;101169.88;3129292;27;114096;-58
2020/12/21 02:00:14;;;;;;;;;;;;;;;20.35;44.58;101178.91;3135630;27;114011;-58
2020/12/21 02:01:49;;;;;;;;;;;;;;;20.37;44.20;101171.03;3134333;27;114166;-58
2020/12/21 02:03:34;;;;;;;;;;;;;;;20.35;44.55;101176.09;3133202;27;113884;-58
2020/12/21 02:05:05;;;;;;;;;;;;;;;20.35;44.64;101169.66;3120468;27;114306;-58
2020/12/21 02:06:36;;;;;;;;;;;;;;;20.33;44.31;101178.38;3130667;27;114086;-58
2020/12/21 02:08:08;;;;;;;;;;;;;;;20.32;44.55;101175.84;3133622;27;114593;-60
2020/12/21 02:09:40;;;;;;;;;;;;;;;20.32;44.57;101167.44;3134313;27;113957;-58
2020/12/21 02:11:11;;;;;;;;;;;;;;;20.31;44.71;101168.56;3120126;27;114561;-59
2020/12/21 02:12:42;;;;;;;;;;;;;;;20.29;44.51;101157.63;3130283;27;114341;-58
2020/12/21 02:14:13;;;;;;;;;;;;;;;20.28;44.52;101160.75;3133747;27;114112;-59
2020/12/21 02:15:45;;;;;;;;;;;;;;;20.27;44.42;101167.47;3133580;27;114392;-59
2020/12/21 02:17:17;;;;;;;;;;;;;;;20.28;44.37;101169.16;3133417;27;114347;-58
2020/12/21 02:18:48;;;;;;;;;;;;;;;20.26;44.47;101179.88;3123082;27;114656;-59
2020/12/21 02:20:29;;;;;;;;;;;;;;;20.25;44.36;101165.00;3130529;27;115875;-59
2020/12/21 02:22:00;;;;;;;;;;;;;;;20.26;44.84;101157.41;3134873;27;114359;-58
2020/12/21 02:23:32;;;;;;;;;;;;;;;20.25;44.82;101159.38;3119583;27;114651;-58
2020/12/21 02:25:03;;;;;;;;;;;;;;;20.23;44.85;101150.41;3130243;27;115129;-58
2020/12/21 02:26:34;;;;;;;;;;;;;;;20.22;44.70;101145.94;3133955;27;115978;-58
2020/12/21 02:28:06;;;;;;;;;;;;;;;20.21;44.57;101141.50;3134327;27;114177;-58
2020/12/21 02:29:37;;;;;;;;;;;;;;;20.22;44.54;101142.28;3134024;27;114409;-58
2020/12/21 02:31:08;;;;;;;;;;;;;;;20.20;44.75;101145.41;3134373;27;114425;-58
2020/12/21 02:32:39;;;;;;;;;;;;;;;20.19;44.87;101138.13;3133967;27;115876;-58
2020/12/21 02:34:11;;;;;;;;;;;;;;;20.19;44.93;101135.31;3133593;27;115798;-58
2020/12/21 02:35:42;;;;;;;;;;;;;;;20.19;44.83;101134.50;3137439;27;115160;-58
2020/12/21 02:37:13;;;;;;;;;;;;;;;20.18;44.99;101130.00;3136993;27;115312;-57
2020/12/21 02:38:45;;;;;;;;;;;;;;;20.16;44.95;101123.88;3126408;27;115226;-58
2020/12/21 02:40:17;;;;;;;;;;;;;;;20.15;45.04;101133.44;3138154;27;114503;-58
2020/12/21 02:41:48;;;;;;;;;;;;;;;20.14;44.90;101135.41;3122709;27;115825;-58
2020/12/21 02:43:20;;;;;;;;;;;;;;;20.12;44.91;101132.06;3131890;27;115909;-58
2020/12/21 02:44:51;;;;;;;;;;;;;;;20.13;45.07;101122.50;3123139;27;115983;-58
2020/12/21 02:46:22;;;;;;;;;;;;;;;20.11;45.06;101129.56;3129149;27;114607;-57
2020/12/21 02:47:53;;;;;;;;;;;;;;;20.10;45.00;101134.31;3110700;27;114798;-58
2020/12/21 02:49:24;;;;;;;;;;;;;;;20.09;45.07;101123.41;3121788;27;115985;-58
2020/12/21 02:50:55;;;;;;;;;;;;;;;20.09;45.11;101126.19;3132260;27;114763;-58
2020/12/21 02:52:29;;;;;;;;;;;;;;;20.06;45.28;101119.25;3136408;27;114782;-60
2020/12/21 02:54:00;;;;;;;;;;;;;;;20.08;45.38;101121.75;3121606;27;114621;-59
2020/12/21 02:55:32;;;;;;;;;;;;;;;20.07;45.29;101117.28;3131884;27;114946;-59
2020/12/21 02:57:05;;;;;;;;;;;;;;;20.09;45.12;101120.59;3122740;27;115885;-59
2020/12/21 02:58:36;;;;;;;;;;;;;;;20.08;45.24;101113.34;3118392;27;115134;-59
2020/12/21 03:00:08;;;;;;;;;;;;;;;20.06;45.10;101107.19;3131744;27;115788;-59
2020/12/21 03:01:39;;;;;;;;;;;;;;;20.05;45.18;101105.50;3138723;27;116434;-60
2020/12/21 03:03:11;;;;;;;;;;;;;;;20.03;45.18;101097.41;3134865;27;114662;-59
2020/12/21 03:04:42;;;;;;;;;;;;;;;20.04;45.15;101090.66;3136349;27;115210;-59
2020/12/21 03:06:13;;;;;;;;;;;;;;;20.03;45.27;101082.56;3122120;27;114288;-60
2020/12/21 03:07:45;;;;;;;;;;;;;;;20.04;45.28;101087.00;3131782;27;114294;-60
2020/12/21 03:09:16;;;;;;;;;;;;;;;20.02;45.09;101076.09;3131067;27;114182;-60
2020/12/21 03:10:51;;;;;;;;;;;;;;;20.02;45.12;101078.06;3122436;27;114226;-60
2020/12/21 03:12:22;;;;;;;;;;;;;;;20.01;45.44;101073.59;3132769;27;114018;-59
2020/12/21 03:13:54;;;;;;;;;;;;;;;19.98;45.48;101075.88;3135273;27;114226;-59
2020/12/21 03:15:25;;;;;;;;;;;;;;;20.01;45.16;101059.56;3136471;27;113660;-59
2020/12/21 03:16:56;;;;;;;;;;;;;;;19.98;45.49;101055.41;3135243;27;113912;-59
2020/12/21 03:18:28;;;;;;;;;;;;;;;19.98;45.35;101050.63;3116800;27;114440;-59
2020/12/21 03:19:59;;;;;;;;;;;;;;;19.98;45.27;101050.63;3106557;28;113940;-61
2020/12/21 03:21:30;;;;;;;;;;;;;;;19.97;45.16;101043.34;3118631;27;113865;-61
2020/12/21 03:23:02;;;;;;;;;;;;;;;19.95;45.31;101030.75;3122236;27;114409;-61
2020/12/21 03:24:33;;;;;;;;;;;;;;;19.94;45.49;101029.91;3122708;27;113772;-61
2020/12/21 03:26:05;;;;;;;;;;;;;;;19.94;45.30;101029.13;3130680;27;114290;-61
2020/12/21 03:27:36;;;;;;;;;;;;;;;19.94;45.16;101032.72;3136024;27;114452;-61
2020/12/21 03:29:07;;;;;;;;;;;;;;;19.93;45.44;101039.50;3134822;27;115354;-61
2020/12/21 03:30:39;;;;;;;;;;;;;;;19.90;45.50;101034.47;3136857;27;114332;-62
2020/12/21 03:32:10;;;;;;;;;;;;;;;19.92;45.28;101031.38;3121779;27;114358;-61
2020/12/21 03:33:41;;;;;;;;;;;;;;;19.92;45.37;101031.38;3116686;27;115432;-61
2020/12/21 03:35:12;;;;;;;;;;;;;;;19.90;45.50;101033.63;3131472;27;115056;-61
2020/12/21 03:36:43;;;;;;;;;;;;;;;19.91;45.34;101018.47;3136493;27;115139;-60
2020/12/21 03:38:15;;;;;;;;;;;;;;;19.88;45.52;101025.53;3135404;27;115443;-61
2020/12/21 03:39:46;;;;;;;;;;;;;;;19.90;45.31;101014.00;3119153;27;115190;-61
2020/12/21 03:41:17;;;;;;;;;;;;;;;19.88;45.44;101016.28;3130510;27;115275;-61
2020/12/21 03:42:48;;;;;;;;;;;;;;;19.86;45.70;101016.59;3135911;27;114235;-61
2020/12/21 03:44:19;;;;;;;;;;;;;;;19.87;45.41;101012.66;3135049;27;115288;-61
2020/12/21 03:45:51;;;;;;;;;;;;;;;19.84;45.46;100999.25;3138622;27;114735;-61
2020/12/21 03:47:22;;;;;;;;;;;;;;;19.85;45.79;101002.88;3135509;27;115968;-61
2020/12/21 03:48:53;;;;;;;;;;;;;;;19.84;45.65;101007.66;3120977;27;116098;-61
2020/12/21 03:50:24;;;;;;;;;;;;;;;19.85;45.76;101002.88;3131354;27;116519;-60
2020/12/21 03:51:55;;;;;;;;;;;;;;;19.83;45.64;101003.19;3135954;27;116005;-61
2020/12/21 03:53:27;;;;;;;;;;;;;;;19.84;45.74;100998.41;3134613;27;115892;-59
2020/12/21 03:54:58;;;;;;;;;;;;;;;19.83;45.67;101003.19;3135682;27;116450;-61
2020/12/21 03:56:30;;;;;;;;;;;;;;;19.79;46.27;100992.88;3136065;27;115007;-62
2020/12/21 03:58:01;;;;;;;;;;;;;;;19.78;46.59;100992.03;3121577;27;114681;-62
2020/12/21 03:59:33;;;;;;;;;;;;;;;19.80;46.36;100986.13;3131241;27;116830;-63
2020/12/21 04:01:04;;;;;;;;;;;;;;;19.78;46.59;100975.22;3136433;27;115730;-64
2020/12/21 04:02:37;;;;;;;;;;;;;;;19.76;46.71;100966.25;3134831;27;116166;-63
2020/12/21 04:04:08;;;;;;;;;;;;;;;19.78;46.68;100971.56;3134468;27;114564;-63
2020/12/21 04:05:40;;;;;;;;;;;;;;;19.77;46.85;100969.91;3134815;27;115858;-63
2020/12/21 04:07:11;;;;;;;;;;;;;;;19.76;47.00;100959.84;3139188;27;116357;-62
2020/12/21 04:08:42;;;;;;;;;;;;;;;19.76;46.54;100954.25;3133692;27;114065;-62
2020/12/21 04:10:13;;;;;;;;;;;;;;;19.75;46.79;100942.19;3135563;27;114573;-62
2020/12/21 04:11:45;;;;;;;;;;;;;;;19.74;47.07;100943.31;3135333;27;114079;-62
2020/12/21 04:13:17;;;;;;;;;;;;;;;19.75;46.85;100944.16;3135192;27;113702;-60
2020/12/21 04:15:06;;;;;;;;;;;;;;;19.72;47.16;100937.16;3135950;27;114353;-61
2020/12/21 04:16:38;;;;;;;;;;;;;;;19.73;47.20;100933.22;3134418;27;114612;-62
2020/12/21 04:18:09;;;;;;;;;;;;;;;19.71;47.13;100924.31;3134105;27;114307;-63
2020/12/21 04:19:40;;;;;;;;;;;;;;;19.70;47.02;100917.03;3133801;27;114702;-62
2020/12/21 04:21:12;;;;;;;;;;;;;;;19.70;46.90;100917.03;3136069;27;114008;-63
2020/12/21 04:22:43;;;;;;;;;;;;;;;19.68;46.72;100905.28;3135588;27;114085;-61
2020/12/21 04:24:14;;;;;;;;;;;;;;;19.69;46.84;100904.16;3134180;27;114058;-62
2020/12/21 04:25:45;;;;;;;;;;;;;;;19.67;46.93;100900.81;3136031;27;113812;-62
2020/12/21 04:27:17;;;;;;;;;;;;;;;19.67;46.81;100900.81;3123221;27;113902;-58
2020/12/21 04:28:48;;;;;;;;;;;;;;;19.66;46.94;100896.34;3137351;27;113946;-58
2020/12/21 04:30:19;;;;;;;;;;;;;;;19.67;46.94;100900.00;3135745;27;114661;-58
2020/12/21 04:31:54;;;;;;;;;;;;;;;19.67;46.86;100891.59;3134614;27;115064;-58
2020/12/21 04:33:25;;;;;;;;;;;;;;;19.66;47.12;100892.72;3134579;27;114886;-58
2020/12/21 04:35:16;;;;;;;;;;;;;;;19.65;46.75;100882.63;3135238;27;114067;-58
2020/12/21 04:36:47;;;;;;;;;;;;;;;19.64;47.14;100886.56;3135227;27;115062;-58
2020/12/21 04:38:19;;;;;;;;;;;;;;;19.64;46.77;100884.59;3134710;27;114054;-58
2020/12/21 04:39:50;;;;;;;;;;;;;;;19.62;46.95;100875.69;3135299;27;115431;-58
2020/12/21 04:41:22;;;;;;;;;;;;;;;19.60;47.08;100872.34;3135146;27;115149;-59
2020/12/21 04:42:53;;;;;;;;;;;;;;;19.61;47.21;100875.97;3135216;27;114316;-59
2020/12/21 04:44:25;;;;;;;;;;;;;;;19.60;47.22;100865.91;3134257;27;114175;-59
2020/12/21 04:45:59;;;;;;;;;;;;;;;19.60;47.28;100865.91;3135740;27;115601;-59
2020/12/21 04:47:31;;;;;;;;;;;;;;;19.61;46.96;100870.38;3133812;27;114612;-60
2020/12/21 04:49:03;;;;;;;;;;;;;;;19.60;47.09;100860.28;3134218;27;115214;-59
2020/12/21 04:50:34;;;;;;;;;;;;;;;19.58;47.13;100849.38;3130579;27;114353;-60
2020/12/21 04:52:06;;;;;;;;;;;;;;;19.60;46.96;100840.66;3129854;27;115868;-59
2020/12/21 04:53:38;;;;;;;;;;;;;;;19.58;47.14;100834.56;3134100;27;115886;-60
2020/12/21 04:55:09;;;;;;;;;;;;;;;19.59;46.98;100844.59;3134493;27;116400;-59
2020/12/21 04:56:41;;;;;;;;;;;;;;;19.56;47.28;100839.63;3131791;27;115292;-60
2020/12/21 04:58:12;;;;;;;;;;;;;;;19.56;47.23;100843.25;3123313;27;114601;-60
2020/12/21 04:59:50;;;;;;;;;;;;;;;19.58;46.98;100842.97;3132664;27;115397;-60
2020/12/21 05:01:30;;;;;;;;;;;;;;;19.57;47.17;100841.28;3132720;27;114656;-60
2020/12/21 05:03:03;;;;;;;;;;;;;;;19.54;47.08;100829.53;3120076;27;115878;-60
2020/12/21 05:04:36;;;;;;;;;;;;;;;19.54;47.36;100832.34;3130134;27;115757;-60
2020/12/21 05:06:07;;;;;;;;;;;;;;;19.53;47.33;100829.88;3134707;27;115122;-59
2020/12/21 05:07:38;;;;;;;;;;;;;;;19.53;47.46;100825.06;3134910;27;116002;-59
2020/12/21 05:09:09;;;;;;;;;;;;;;;19.53;47.42;100825.06;3130952;27;115627;-59
2020/12/21 05:10:44;;;;;;;;;;;;;;;19.52;47.33;100815.03;3134372;27;115813;-58
2020/12/21 05:12:16;;;;;;;;;;;;;;;19.53;47.15;100804.66;3132074;27;116074;-59
2020/12/21 05:13:47;;;;;;;;;;;;;;;19.54;47.18;100806.28;3136952;27;116555;-59
2020/12/21 05:15:20;;;;;;;;;;;;;;;19.51;47.19;100799.34;3134791;27;114822;-58
2020/12/21 05:16:51;;;;;;;;;;;;;;;19.52;47.24;100792.59;3131571;27;114327;-58
2020/12/21 05:18:42;;;;;;;;;;;;;;;19.51;47.41;100774.13;3119722;27;114063;-58
2020/12/21 05:20:13;;;;;;;;;;;;;;;19.49;47.36;100765.16;3130929;27;114233;-58
2020/12/21 05:21:52;;;;;;;;;;;;;;;19.49;47.40;100769.94;3134333;27;113852;-58
2020/12/21 05:23:23;;;;;;;;;;;;;;;19.48;47.36;100759.88;3133540;27;114371;-59
2020/12/21 05:25:14;;;;;;;;;;;;;;;19.49;47.51;100753.97;3134410;27;113961;-58
2020/12/21 05:26:46;;;;;;;;;;;;;;;19.50;47.55;100746.38;3131379;27;116205;-59
2020/12/21 05:28:17;;;;;;;;;;;;;;;19.53;47.28;100735.41;3133852;27;114281;-58
2020/12/21 05:29:52;;;;;;;;;;;;;;;19.57;47.63;100732.00;3121231;27;113992;-59
2020/12/21 05:31:24;;;;;;;;;;;;;;;19.60;47.68;100735.00;3121054;27;114050;-58
2020/12/21 05:32:59;;;;;;;;;;;;;;;19.62;47.75;100727.13;3129341;27;114365;-58
2020/12/21 05:34:32;;;;;;;;;;;;;;;19.66;47.73;100728.19;3133243;27;114026;-58
2020/12/21 05:36:09;;;;;;;;;;;;;;;19.69;47.77;100715.50;3138884;27;115027;-58
2020/12/21 05:37:41;;;;;;;;;;;;;;;19.73;47.74;100710.94;3134398;27;115650;-58
2020/12/21 05:39:12;;;;;;;;;;;;;;;19.75;48.08;100720.72;3132864;27;115136;-58
2020/12/21 05:40:43;;;;;;;;;;;;;;;19.79;47.98;100709.72;3121045;27;115136;-58
2020/12/21 05:42:14;;;;;;;;;;;;;;;19.82;48.24;100712.72;3130230;27;113933;-58
2020/12/21 05:43:46;;;;;;;;;;;;;;;19.86;48.17;100705.34;3133535;27;115210;-57
2020/12/21 05:45:17;;;;;;;;;;;;;;;19.90;48.06;100702.75;3134999;27;115073;-58
2020/12/21 05:46:48;;;;;;;;;;;;;;;19.93;47.85;100704.97;3120411;27;116542;-58
2020/12/21 05:48:22;;;;;;;;;;;;;;;19.96;47.80;100699.56;3129038;27;114851;-58
2020/12/21 05:49:55;;;;;;;;;;;;;;;20.01;47.88;100693.00;3120415;27;115227;-58
2020/12/21 05:51:32;;;;;;;;;;;;;;;20.04;47.79;100695.19;3129688;27;115238;-58
2020/12/21 05:53:03;;;;;;;;;;;;;;;20.10;47.67;100693.13;3119843;27;116031;-59
2020/12/21 05:54:35;;;;;;;;;;;;;;;20.13;47.83;100689.69;3129620;27;114133;-58
2020/12/21 05:56:06;;;;;;;;;;;;;;;20.18;47.74;100686.78;3133819;27;115472;-58
2020/12/21 05:57:38;;;;;;;;;;;;;;;20.21;47.52;100670.19;3124492;27;115468;-58
2020/12/21 05:59:12;;;;;;;;;;;;;;;20.25;47.51;100678.78;3126393;27;115848;-58
2020/12/21 06:00:44;;;;;;;;;;;;;;;20.29;47.41;100668.59;3134886;27;115293;-58
2020/12/21 06:02:17;;;;;;;;;;;;;;;20.33;47.36;100664.03;3133913;27;115883;-58
2020/12/21 06:03:49;;;;;;;;;;;;;;;20.36;47.31;100658.63;3119483;27;115824;-58
2020/12/21 06:05:28;;;;;;;;;;;;;;;20.40;47.62;100661.63;3129546;27;116186;-58
2020/12/21 06:07:02;;;;;;;;;;;;;;;20.45;47.23;100657.88;3134414;27;115153;-58
2020/12/21 06:08:35;;;;;;;;;;;;;;;20.48;47.16;100649.69;3130222;27;114903;-59
2020/12/21 06:10:08;;;;;;;;;;;;;;;20.52;47.67;100642.28;3136345;27;115785;-59
2020/12/21 06:11:39;;;;;;;;;;;;;;;20.56;48.13;100637.69;3135710;27;114872;-58
2020/12/21 06:13:13;;;;;;;;;;;;;;;20.62;48.23;100628.03;3133134;27;116024;-59
2020/12/21 06:14:50;;;;;;;;;;;;;;;20.66;47.38;100625.41;3122671;27;115836;-59
2020/12/21 06:16:22;;;;;;;;;;;;;;;20.69;47.39;100619.97;3132883;27;115764;-59
2020/12/21 06:17:53;;;;;;;;;;;;;;;20.71;47.34;100622.47;3120922;27;116105;-59
2020/12/21 06:19:25;;;;;;;;;;;;;;;20.74;47.28;100616.22;3133816;27;116017;-59
2020/12/21 06:20:56;;;;;;;;;;;;;;;20.77;47.08;100613.59;3137146;27;114204;-59
2020/12/21 06:22:28;;;;;;;;;;;;;;;20.80;47.10;100610.16;3136811;27;113758;-59
2020/12/21 06:24:00;;;;;;;;;;;;;;;20.82;46.89;100599.44;3121014;27;114698;-59
2020/12/21 06:25:31;;;;;;;;;;;;;;;20.86;46.69;100589.22;3132092;27;113915;-59
2020/12/21 06:27:11;;;;;;;;;;;;;;;20.90;46.76;100580.16;3135729;27;113816;-59
2020/12/21 06:28:43;;;;;;;;;;;;;;;20.92;46.40;100583.47;3121723;27;113759;-58
2020/12/21 06:30:16;;;;;;;;;;;;;;;20.95;46.42;100580.84;3132010;27;114249;-59
2020/12/21 06:31:52;;;;;;;;;;;;;;;20.98;46.61;100574.63;3136019;27;113944;-60
2020/12/21 06:33:24;;;;;;;;;;;;;;;21.02;46.18;100563.56;3135851;27;114184;-63
2020/12/21 06:34:55;;;;;;;;;;;;;;;21.04;46.04;100564.06;3122657;27;114005;-63
2020/12/21 06:36:31;;;;;;;;;;;;;;;21.06;46.26;100551.38;3132025;27;114172;-60
2020/12/21 06:38:03;;;;;;;;;;;;;;;21.10;45.99;100557.16;3135788;27;115091;-61
2020/12/21 06:39:35;;;;;;;;;;;;;;;21.12;46.17;100552.06;3136664;27;113981;-61
2020/12/21 06:41:18;;;;;;;;;;;;;;;21.15;45.80;100557.91;3136505;27;114408;-61
2020/12/21 06:43:14;;;;;;;;;;;;;;;21.19;46.09;100552.44;3125417;27;114339;-61
2020/12/21 06:44:46;;;;;;;;;;;;;;;21.21;45.73;100539.72;3121948;27;115212;-61
2020/12/21 06:46:17;;;;;;;;;;;;;;;21.24;45.56;100539.09;3132757;27;114216;-61
2020/12/21 06:47:48;;;;;;;;;;;;;;;21.26;45.66;100530.31;3135142;27;115306;-60
2020/12/21 06:49:20;;;;;;;;;;;;;;;21.29;45.72;100527.72;3134551;27;115319;-62
2020/12/21 06:50:52;;;;;;;;;;;;;;;21.32;46.24;100525.41;3136193;27;115105;-62
2020/12/21 06:52:23;;;;;;;;;;;;;;;21.34;45.89;100523.94;3136330;27;115175;-62
2020/12/21 06:54:05;;;;;;;;;;;;;;;21.35;45.59;100517.13;3133480;27;114510;-62
2020/12/21 06:55:37;;;;;;;;;;;;;;;21.40;45.72;100527.41;3134460;27;114529;-62
2020/12/21 06:57:09;;;;;;;;;;;;;;;21.41;45.79;100523.44;3136411;27;115242;-62
2020/12/21 06:58:40;;;;;;;;;;;;;;;21.43;45.89;100535.22;3121058;27;114633;-62
2020/12/21 07:00:12;;;;;;;;;;;;;;;21.44;45.79;100523.63;3131760;27;115228;-62
2020/12/21 07:01:45;;;;;;;;;;;;;;;21.48;45.90;100512.59;3135896;27;114258;-61
2020/12/21 07:03:16;;;;;;;;;;;;;;;21.49;45.74;100506.63;3133530;27;115246;-62
2020/12/21 07:04:47;;;;;;;;;;;;;;;21.51;45.59;100503.50;3125778;27;115218;-62
2020/12/21 07:06:19;;;;;;;;;;;;;;;21.52;45.74;100503.19;3122657;27;115813;-61
2020/12/21 07:07:59;;;;;;;;;;;;;;;21.55;45.86;100499.69;3110438;27;117049;-62
2020/12/21 07:09:32;;;;;;;;;;;;;;;21.58;45.73;100493.41;3126700;27;115442;-64
2020/12/21 07:11:03;;;;;;;;;;;;;;;21.60;45.58;100490.28;3122822;27;117499;-63
2020/12/21 07:12:34;;;;;;;;;;;;;;;21.62;45.31;100488.78;3132231;27;116189;-64
2020/12/21 07:14:06;;;;;;;;;;;;;;;21.64;45.58;100480.88;3135536;27;114774;-64
2020/12/21 07:15:37;;;;;;;;;;;;;;;21.66;45.61;100470.13;3136108;27;115900;-63
2020/12/21 07:17:10;;;;;;;;;;;;;;;21.68;45.65;100464.16;3135311;27;116167;-63
2020/12/21 07:18:42;;;;;;;;;;;;;;;21.70;45.51;100459.06;3133806;27;115542;-63
2020/12/21 07:20:13;;;;;;;;;;;;;;;21.72;45.44;100460.38;3136087;27;116910;-62
2020/12/21 07:21:47;;;;;;;;;;;;;;;21.74;45.57;100463.69;3135881;27;114518;-62
2020/12/21 07:23:18;;;;;;;;;;;;;;;21.77;45.24;100458.56;3134635;27;114797;-62
2020/12/21 07:24:49;;;;;;;;;;;;;;;21.80;45.38;100452.28;3135290;27;115900;-62
2020/12/21 07:26:20;;;;;;;;;;;;;;;21.80;44.95;100450.31;3125195;27;114581;-62
2020/12/21 07:27:53;;;;;;;;;;;;;;;21.83;45.17;100454.44;3131047;27;113697;-62
2020/12/21 07:29:31;;;;;;;;;;;;;;;21.85;45.06;100444.50;3134991;27;114328;-63
2020/12/21 07:31:04;;;;;;;;;;;;;;;21.87;45.66;100433.75;3135044;27;113898;-63
2020/12/21 07:32:35;;;;;;;;;;;;;;;21.93;45.59;100440.91;3134959;27;114779;-59
2020/12/21 07:34:06;;;;;;;;;;;;;;;21.94;45.16;100433.31;3120414;27;114315;-59
2020/12/21 07:35:37;;;;;;;;;;;;;;;21.95;45.16;100435.78;3131369;27;115038;-59
2020/12/21 07:37:09;;;;;;;;;;;;;;;21.97;45.11;100429.81;3135577;27;114442;-59
2020/12/21 07:38:41;;;;;;;;;;;;;;;21.98;45.19;100426.69;3134036;27;114445;-59
2020/12/21 07:40:18;;;;;;;;;;;;;;;22.00;44.87;100418.72;3135676;27;114343;-59
2020/12/21 07:41:53;;;;;;;;;;;;;;;22.01;44.87;100416.75;3132380;27;114152;-59
2020/12/21 07:43:34;;;;;;;;;;;;;;;22.03;44.75;100422.88;3134693;27;114343;-59
2020/12/21 07:45:06;;;;;;;;;;;;;;;22.03;44.73;100412.44;3135642;27;113843;-59
2020/12/21 07:46:44;;;;;;;;;;;;;;;22.06;44.78;100417.41;3135437;27;115139;-59
2020/12/21 07:48:17;;;;;;;;;;;;;;;22.08;44.78;100417.91;3122886;27;113685;-59
2020/12/21 07:49:48;;;;;;;;;;;;;;;22.10;44.76;100417.56;3118090;27;115294;-60
2020/12/21 07:51:21;;;;;;;;;;;;;;;22.11;45.12;100407.97;3131207;27;115173;-63